| time (UTC) | temp F | wind direction | speed knots | gust knots | rain 1hr in | rain 24hr in | rain mn in | humidity % | barometer mb |
| 20260507014515 | 63 | 33 | 11.3 | 13.9 | 0.00 | 0.00 | 0.00 | 34 | 980.2 |
| 20260507013020 | 63 | 52 | 11.3 | 14.8 | 0.00 | 0.00 | 0.00 | 33 | 980.2 |
| 20260507011506 | 63 | 23 | 7.8 | 11.3 | 0.00 | 0.00 | 0.00 | 34 | 980.2 |
| 20260507010004 | 63 | 18 | 8.7 | 13.9 | 0.00 | 0.00 | 0.00 | 34 | 980.2 |
| 20260507004504 | 63 | 23 | 8.7 | 14.8 | 0.00 | 0.00 | 0.00 | 35 | 980.3 |
| 20260507003003 | 63 | 19 | 12.2 | 18.2 | 0.00 | 0.00 | 0.00 | 35 | 980.3 |
| 20260507001503 | 64 | 349 | 13.0 | 18.2 | 0.00 | 0.00 | 0.00 | 32 | 980.3 |
| 20260507000005 | 65 | 333 | 7.0 | 10.4 | 0.00 | 0.00 | 0.00 | 29 | 979.9 |
| 20260506234502 | 65 | 46 | 3.5 | 12.2 | 0.00 | 0.00 | 0.00 | 29 | 979.8 |
| 20260506233109 | 66 | 122 | 3.5 | 6.1 | 0.00 | 0.00 | 0.00 | 31 | 979.5 |
| 20260506231559 | 65 | 152 | 2.6 | 18.2 | 0.00 | 0.00 | 0.00 | 30 | 979.8 |
| 20260506230058 | 65 | 50 | 8.7 | 18.2 | 0.00 | 0.00 | 0.00 | 31 | 979.8 |
| 20260506224557 | 66 | 64 | 8.7 | 12.2 | 0.00 | 0.00 | 0.00 | 28 | 980.2 |
| 20260506223115 | 67 | 44 | 12.2 | 15.6 | 0.00 | 0.00 | 0.00 | 27 | 980.1 |
| 20260506221559 | 67 | 47 | 6.1 | 13.0 | 0.00 | 0.00 | 0.00 | 28 | 980.3 |
| 20260506220055 | 67 | 330 | 7.0 | 15.6 | 0.00 | 0.00 | 0.00 | 27 | 980.5 |
| 20260506214555 | 67 | 46 | 11.3 | 15.6 | 0.00 | 0.00 | 0.00 | 26 | 980.7 |
| 20260506213047 | 66 | 64 | 7.8 | 10.4 | 0.00 | 0.00 | 0.00 | 27 | 980.9 |
| 20260506211547 | 66 | 56 | 7.8 | 10.4 | 0.00 | 0.00 | 0.00 | 27 | 981.1 |
| 20260506210045 | 66 | 81 | 5.2 | 8.7 | 0.00 | 0.00 | 0.00 | 27 | 981.2 |
| 20260506204542 | 67 | 346 | 0.0 | 8.7 | 0.00 | 0.00 | 0.00 | 27 | 981.3 |
| 20260506203045 | 66 | 70 | 7.0 | 9.6 | 0.00 | 0.00 | 0.00 | 28 | 981.4 |
| 20260506201540 | 65 | 345 | 4.3 | 11.3 | 0.00 | 0.00 | 0.00 | 27 | 981.6 |
| 20260506200056 | 66 | 77 | 9.6 | 13.0 | 0.00 | 0.00 | 0.00 | 26 | 981.6 |
| 20260506194539 | 66 | 62 | 11.3 | 14.8 | 0.00 | 0.00 | 0.00 | 28 | 981.7 |
| 20260506193036 | 66 | 339 | 9.6 | 16.5 | 0.00 | 0.00 | 0.00 | 26 | 981.9 |
| 20260506191534 | 67 | 345 | 4.3 | 11.3 | 0.00 | 0.00 | 0.00 | 28 | 982.1 |
| 20260506190031 | 66 | 226 | 1.7 | 8.7 | 0.00 | 0.00 | 0.00 | 27 | 982.4 |
| 20260506184528 | 65 | 69 | 4.3 | 12.2 | 0.00 | 0.00 | 0.00 | 28 | 982.6 |
| 20260506183025 | 64 | 169 | 0.0 | 7.8 | 0.00 | 0.00 | 0.00 | 29 | 982.9 |
| 20260506181529 | 63 | 211 | 2.6 | 7.0 | 0.00 | 0.00 | 0.00 | 30 | 983.2 |
| 20260506180028 | 62 | 228 | 1.7 | 9.6 | 0.00 | 0.00 | 0.00 | 31 | 983.4 |
| 20260506174514 | 61 | 224 | 1.7 | 9.6 | 0.00 | 0.00 | 0.00 | 32 | 983.6 |
| 20260506173011 | 59 | 170 | 4.3 | 7.8 | 0.00 | 0.00 | 0.00 | 33 | 983.9 |
| 20260506171508 | 57 | 195 | 0.9 | 8.7 | 0.00 | 0.00 | 0.00 | 35 | 984.2 |
| 20260506170007 | 55 | 248 | 0.9 | 6.1 | 0.00 | 0.00 | 0.00 | 36 | 984.6 |
| 20260506164601 | 54 | 215 | 3.5 | 7.8 | 0.00 | 0.00 | 0.00 | 37 | 984.8 |
| 20260506163106 | 53 | 246 | 2.6 | 6.1 | 0.00 | 0.00 | 0.00 | 38 | 985.0 |
| 20260506161557 | 51 | 206 | 2.6 | 7.8 | 0.00 | 0.00 | 0.00 | 40 | 985.1 |
| 20260506154546 | 49 | 185 | 1.7 | 5.2 | 0.00 | 0.00 | 0.00 | 42 | 985.6 |
| 20260506153044 | 47 | 242 | 2.6 | 6.1 | 0.00 | 0.00 | 0.00 | 44 | 985.6 |
| 20260506151540 | 46 | 225 | 2.6 | 6.1 | 0.00 | 0.00 | 0.00 | 45 | 985.8 |
| 20260506150037 | 46 | 197 | 0.0 | 5.2 | 0.00 | 0.00 | 0.00 | 46 | 986.0 |
| 20260506144533 | 45 | 224 | 0.0 | 2.6 | 0.00 | 0.00 | 0.00 | 46 | 986.2 |
| 20260506143030 | 44 | 222 | 0.0 | 0.9 | 0.00 | 0.00 | 0.00 | 48 | 986.3 |
| 20260506141526 | 43 | 212 | 0.0 | 0.9 | 0.00 | 0.00 | 0.00 | 50 | 986.5 |
| 20260506140022 | 40 | 257 | 0.0 | 0.9 | 0.00 | 0.00 | 0.00 | 53 | 986.7 |
| 20260506134534 | 38 | 266 | 0.0 | 3.5 | 0.00 | 0.00 | 0.00 | 56 | 986.8 |
| 20260506133014 | 36 | 271 | 0.0 | 0.9 | 0.00 | 0.00 | 0.00 | 59 | 986.9 |
| 20260506131511 | 35 | 223 | 0.0 | 0.0 | 0.00 | 0.00 | 0.00 | 60 | 987.0 |
| 20260506130007 | 34 | 242 | 0.0 | 0.0 | 0.00 | 0.00 | 0.00 | 61 | 987.0 |
| 20260506124502 | 34 | 255 | 0.0 | 0.0 | 0.00 | 0.00 | 0.00 | 60 | 987.1 |
| 20260506123058 | 32 | 256 | 0.0 | 0.0 | 0.00 | 0.00 | 0.00 | 60 | 987.2 |
| 20260506121606 | 32 | 210 | 0.0 | 0.0 | 0.00 | 0.00 | 0.00 | 61 | 987.2 |
| 20260506120056 | 31 | 150 | 0.0 | 0.0 | 0.00 | 0.00 | 0.00 | 61 | 987.3 |
| 20260506114555 | 32 | 160 | 0.0 | 0.0 | 0.00 | 0.00 | 0.00 | 60 | 987.6 |
| 20260506113052 | 32 | 201 | 0.0 | 0.0 | 0.00 | 0.00 | 0.00 | 61 | 987.8 |
| 20260506111608 | 31 | 200 | 0.0 | 0.0 | 0.00 | 0.00 | 0.00 | 61 | 988.0 |
| 20260506110052 | 31 | 179 | 0.0 | 3.5 | 0.00 | 0.00 | 0.00 | 62 | 988.1 |
| 20260506104547 | 32 | 186 | 2.6 | 5.2 | 0.00 | 0.00 | 0.00 | 61 | 988.3 |
| 20260506103045 | 32 | 165 | 2.6 | 6.1 | 0.00 | 0.00 | 0.00 | 61 | 988.4 |
| 20260506101542 | 32 | 195 | 2.6 | 7.0 | 0.00 | 0.00 | 0.00 | 60 | 988.6 |
| 20260506100041 | 32 | 157 | 2.6 | 7.0 | 0.00 | 0.00 | 0.00 | 58 | 988.8 |
| 20260506094536 | 33 | 156 | 4.3 | 8.7 | 0.00 | 0.00 | 0.00 | 57 | 989.0 |
| 20260506093033 | 33 | 176 | 6.1 | 12.2 | 0.00 | 0.00 | 0.00 | 57 | 989.3 |
| 20260506091532 | 33 | 163 | 5.2 | 14.8 | 0.00 | 0.00 | 0.00 | 56 | 989.4 |
| 20260506090029 | 33 | 173 | 7.0 | 15.6 | 0.00 | 0.00 | 0.00 | 56 | 989.4 |
| 20260506084527 | 33 | 156 | 4.3 | 11.3 | 0.00 | 0.00 | 0.00 | 56 | 989.6 |
| 20260506083022 | 34 | 165 | 7.0 | 12.2 | 0.00 | 0.00 | 0.00 | 54 | 989.7 |
| 20260506081523 | 34 | 155 | 4.3 | 13.0 | 0.00 | 0.00 | 0.00 | 54 | 989.9 |
| 20260506073012 | 34 | 167 | 6.1 | 11.3 | 0.00 | 0.00 | 0.00 | 53 | 990.4 |
| 20260506071510 | 35 | 167 | 6.1 | 11.3 | 0.00 | 0.00 | 0.00 | 52 | 990.7 |
| 20260506061557 | 36 | 148 | 3.5 | 9.6 | 0.00 | 0.00 | 0.00 | 48 | 991.3 |
| 20260506044546 | 39 | 134 | 5.2 | 8.7 | 0.00 | 0.00 | 0.00 | 45 | 992.0 |
| 20260506043046 | 39 | 108 | 7.0 | 10.4 | 0.00 | 0.00 | 0.00 | 45 | 992.0 |
| 20260506041545 | 40 | 119 | 7.0 | 10.4 | 0.00 | 0.00 | 0.00 | 45 | 992.1 |
| 20260506040044 | 40 | 118 | 5.2 | 8.7 | 0.00 | 0.00 | 0.00 | 44 | 992.1 |
| 20260506034546 | 41 | 137 | 5.2 | 9.6 | 0.00 | 0.00 | 0.00 | 43 | 992.3 |
| 20260506033043 | 42 | 110 | 6.1 | 9.6 | 0.00 | 0.00 | 0.00 | 41 | 992.3 |
| 20260506031543 | 42 | 108 | 7.0 | 9.6 | 0.00 | 0.00 | 0.00 | 39 | 992.1 |
| 20260506030043 | 43 | 114 | 7.0 | 13.0 | 0.00 | 0.00 | 0.00 | 38 | 992.1 |
| 20260506024550 | 44 | 79 | 5.2 | 10.4 | 0.00 | 0.00 | 0.00 | 35 | 992.0 |
| 20260506023041 | 45 | 101 | 7.0 | 10.4 | 0.00 | 0.00 | 0.00 | 34 | 992.0 |
| 20260506021540 | 45 | 77 | 4.3 | 8.7 | 0.00 | 0.00 | 0.00 | 34 | 991.9 |
| 20260506020044 | 46 | 78 | 6.1 | 9.6 | 0.00 | 0.00 | 0.00 | 32 | 992.1 |